sensor_id;sensor_type;location;lat;lon;timestamp;P1;durP1;ratioP1;P2;durP2;ratioP2
61291;SDS011;47165;42.664;23.368;2023-05-07T00:01:55;5.20;;;2.72;;
61291;SDS011;47165;42.664;23.368;2023-05-07T00:04:21;4.80;;;2.47;;
61291;SDS011;47165;42.664;23.368;2023-05-07T00:06:46;3.60;;;2.30;;
61291;SDS011;47165;42.664;23.368;2023-05-07T00:09:11;4.30;;;2.35;;
61291;SDS011;47165;42.664;23.368;2023-05-07T00:11:37;5.13;;;2.33;;
61291;SDS011;47165;42.664;23.368;2023-05-07T00:14:03;5.10;;;3.50;;
61291;SDS011;47165;42.664;23.368;2023-05-07T00:16:28;4.65;;;2.95;;
61291;SDS011;47165;42.664;23.368;2023-05-07T00:18:54;6.78;;;3.28;;
61291;SDS011;47165;42.664;23.368;2023-05-07T00:21:19;6.82;;;3.33;;
61291;SDS011;47165;42.664;23.368;2023-05-07T00:23:46;4.43;;;2.65;;
61291;SDS011;47165;42.664;23.368;2023-05-07T00:26:12;3.78;;;2.08;;
61291;SDS011;47165;42.664;23.368;2023-05-07T00:28:37;3.15;;;2.35;;
61291;SDS011;47165;42.664;23.368;2023-05-07T00:31:03;3.20;;;2.33;;
61291;SDS011;47165;42.664;23.368;2023-05-07T00:33:28;5.90;;;3.08;;
61291;SDS011;47165;42.664;23.368;2023-05-07T00:35:53;3.85;;;2.53;;
61291;SDS011;47165;42.664;23.368;2023-05-07T00:38:19;2.22;;;1.55;;
61291;SDS011;47165;42.664;23.368;2023-05-07T00:40:45;4.28;;;2.80;;
61291;SDS011;47165;42.664;23.368;2023-05-07T00:43:10;3.90;;;1.98;;
61291;SDS011;47165;42.664;23.368;2023-05-07T00:45:37;2.22;;;1.70;;
61291;SDS011;47165;42.664;23.368;2023-05-07T00:48:03;2.35;;;1.95;;
61291;SDS011;47165;42.664;23.368;2023-05-07T00:50:28;3.85;;;2.60;;
61291;SDS011;47165;42.664;23.368;2023-05-07T00:52:54;3.85;;;2.40;;
61291;SDS011;47165;42.664;23.368;2023-05-07T00:55:21;5.18;;;2.95;;
61291;SDS011;47165;42.664;23.368;2023-05-07T00:57:47;3.42;;;1.90;;
61291;SDS011;47165;42.664;23.368;2023-05-07T01:00:15;4.13;;;2.35;;
61291;SDS011;47165;42.664;23.368;2023-05-07T01:02:40;3.63;;;2.40;;
61291;SDS011;47165;42.664;23.368;2023-05-07T01:05:08;8.25;;;2.80;;
61291;SDS011;47165;42.664;23.368;2023-05-07T01:07:36;3.33;;;1.88;;
61291;SDS011;47165;42.664;23.368;2023-05-07T01:10:04;4.82;;;2.28;;
61291;SDS011;47165;42.664;23.368;2023-05-07T01:12:31;3.63;;;1.90;;
61291;SDS011;47165;42.664;23.368;2023-05-07T01:14:57;3.80;;;2.10;;
61291;SDS011;47165;42.664;23.368;2023-05-07T01:17:23;3.55;;;2.17;;
61291;SDS011;47165;42.664;23.368;2023-05-07T01:19:48;4.10;;;2.28;;
61291;SDS011;47165;42.664;23.368;2023-05-07T01:22:15;3.20;;;2.03;;
61291;SDS011;47165;42.664;23.368;2023-05-07T01:24:45;2.97;;;1.90;;
61291;SDS011;47165;42.664;23.368;2023-05-07T01:27:11;2.63;;;1.60;;
61291;SDS011;47165;42.664;23.368;2023-05-07T01:29:36;1.80;;;1.55;;
61291;SDS011;47165;42.664;23.368;2023-05-07T01:32:01;4.18;;;2.20;;
61291;SDS011;47165;42.664;23.368;2023-05-07T01:34:30;2.90;;;1.83;;
61291;SDS011;47165;42.664;23.368;2023-05-07T01:36:57;2.67;;;1.55;;
61291;SDS011;47165;42.664;23.368;2023-05-07T01:39:24;3.35;;;2.13;;
61291;SDS011;47165;42.664;23.368;2023-05-07T01:41:51;3.10;;;1.77;;
61291;SDS011;47165;42.664;23.368;2023-05-07T01:44:16;1.98;;;1.48;;
61291;SDS011;47165;42.664;23.368;2023-05-07T01:46:43;3.35;;;1.92;;
61291;SDS011;47165;42.664;23.368;2023-05-07T01:49:10;3.00;;;1.58;;
61291;SDS011;47165;42.664;23.368;2023-05-07T01:51:35;2.95;;;2.30;;
61291;SDS011;47165;42.664;23.368;2023-05-07T01:54:01;2.35;;;1.85;;
61291;SDS011;47165;42.664;23.368;2023-05-07T01:56:26;4.88;;;2.08;;
61291;SDS011;47165;42.664;23.368;2023-05-07T01:58:52;2.67;;;1.58;;
61291;SDS011;47165;42.664;23.368;2023-05-07T02:01:17;2.97;;;1.73;;
61291;SDS011;47165;42.664;23.368;2023-05-07T02:03:43;3.28;;;2.30;;
61291;SDS011;47165;42.664;23.368;2023-05-07T02:06:09;5.88;;;1.98;;
61291;SDS011;47165;42.664;23.368;2023-05-07T02:08:34;3.30;;;2.05;;
61291;SDS011;47165;42.664;23.368;2023-05-07T02:11:00;2.97;;;2.28;;
61291;SDS011;47165;42.664;23.368;2023-05-07T02:13:29;4.55;;;3.38;;
61291;SDS011;47165;42.664;23.368;2023-05-07T02:15:57;3.80;;;2.15;;
61291;SDS011;47165;42.664;23.368;2023-05-07T02:18:22;3.05;;;2.63;;
61291;SDS011;47165;42.664;23.368;2023-05-07T02:20:48;3.85;;;2.63;;
61291;SDS011;47165;42.664;23.368;2023-05-07T02:23:13;2.60;;;2.10;;
61291;SDS011;47165;42.664;23.368;2023-05-07T02:25:38;2.30;;;1.92;;
61291;SDS011;47165;42.664;23.368;2023-05-07T02:28:04;5.47;;;3.40;;
61291;SDS011;47165;42.664;23.368;2023-05-07T02:30:29;3.92;;;3.15;;
61291;SDS011;47165;42.664;23.368;2023-05-07T02:32:55;4.40;;;2.45;;
61291;SDS011;47165;42.664;23.368;2023-05-07T02:35:20;3.00;;;2.70;;
61291;SDS011;47165;42.664;23.368;2023-05-07T02:37:45;3.28;;;2.22;;
61291;SDS011;47165;42.664;23.368;2023-05-07T02:40:11;4.65;;;2.40;;
61291;SDS011;47165;42.664;23.368;2023-05-07T02:42:36;8.40;;;3.10;;
61291;SDS011;47165;42.664;23.368;2023-05-07T02:45:02;4.18;;;2.90;;
61291;SDS011;47165;42.664;23.368;2023-05-07T02:47:28;4.63;;;2.75;;
61291;SDS011;47165;42.664;23.368;2023-05-07T02:49:54;5.95;;;2.83;;
61291;SDS011;47165;42.664;23.368;2023-05-07T02:52:20;6.72;;;3.40;;
61291;SDS011;47165;42.664;23.368;2023-05-07T02:54:45;7.47;;;2.50;;
61291;SDS011;47165;42.664;23.368;2023-05-07T02:57:11;6.78;;;3.55;;
61291;SDS011;47165;42.664;23.368;2023-05-07T02:59:36;5.72;;;3.10;;
61291;SDS011;47165;42.664;23.368;2023-05-07T03:02:02;7.07;;;3.90;;
61291;SDS011;47165;42.664;23.368;2023-05-07T03:04:27;4.38;;;2.55;;
61291;SDS011;47165;42.664;23.368;2023-05-07T03:06:52;4.32;;;2.95;;
61291;SDS011;47165;42.664;23.368;2023-05-07T03:09:18;5.57;;;3.50;;
61291;SDS011;47165;42.664;23.368;2023-05-07T03:11:43;5.43;;;3.15;;
61291;SDS011;47165;42.664;23.368;2023-05-07T03:14:09;4.82;;;3.08;;
61291;SDS011;47165;42.664;23.368;2023-05-07T03:16:34;4.70;;;2.92;;
61291;SDS011;47165;42.664;23.368;2023-05-07T03:19:00;7.40;;;3.05;;
61291;SDS011;47165;42.664;23.368;2023-05-07T03:21:26;5.82;;;3.28;;
61291;SDS011;47165;42.664;23.368;2023-05-07T03:23:51;6.35;;;3.13;;
61291;SDS011;47165;42.664;23.368;2023-05-07T03:26:17;5.95;;;3.42;;
61291;SDS011;47165;42.664;23.368;2023-05-07T03:28:42;6.85;;;2.92;;
61291;SDS011;47165;42.664;23.368;2023-05-07T03:31:08;10.93;;;4.68;;
61291;SDS011;47165;42.664;23.368;2023-05-07T03:33:33;9.18;;;3.83;;
61291;SDS011;47165;42.664;23.368;2023-05-07T03:36:00;9.68;;;3.25;;
61291;SDS011;47165;42.664;23.368;2023-05-07T03:38:26;6.43;;;3.72;;
61291;SDS011;47165;42.664;23.368;2023-05-07T03:40:51;6.05;;;3.75;;
61291;SDS011;47165;42.664;23.368;2023-05-07T03:43:17;5.90;;;2.92;;
61291;SDS011;47165;42.664;23.368;2023-05-07T03:45:42;4.18;;;3.08;;
61291;SDS011;47165;42.664;23.368;2023-05-07T03:48:07;5.40;;;3.35;;
61291;SDS011;47165;42.664;23.368;2023-05-07T03:50:33;6.80;;;3.38;;
61291;SDS011;47165;42.664;23.368;2023-05-07T03:52:58;6.38;;;4.05;;
61291;SDS011;47165;42.664;23.368;2023-05-07T03:55:24;6.68;;;3.78;;
61291;SDS011;47165;42.664;23.368;2023-05-07T03:57:50;6.45;;;3.80;;
61291;SDS011;47165;42.664;23.368;2023-05-07T04:00:15;5.85;;;2.95;;
61291;SDS011;47165;42.664;23.368;2023-05-07T04:02:41;6.75;;;3.30;;
61291;SDS011;47165;42.664;23.368;2023-05-07T04:05:07;8.43;;;4.35;;
61291;SDS011;47165;42.664;23.368;2023-05-07T04:07:32;6.45;;;3.30;;
61291;SDS011;47165;42.664;23.368;2023-05-07T04:09:58;6.97;;;3.22;;
61291;SDS011;47165;42.664;23.368;2023-05-07T04:12:23;5.25;;;2.97;;
61291;SDS011;47165;42.664;23.368;2023-05-07T04:14:49;5.78;;;3.35;;
61291;SDS011;47165;42.664;23.368;2023-05-07T04:17:15;7.97;;;3.78;;
61291;SDS011;47165;42.664;23.368;2023-05-07T04:19:40;6.88;;;3.55;;
61291;SDS011;47165;42.664;23.368;2023-05-07T04:22:10;5.57;;;2.90;;
61291;SDS011;47165;42.664;23.368;2023-05-07T04:24:35;6.13;;;2.90;;
61291;SDS011;47165;42.664;23.368;2023-05-07T04:27:01;6.10;;;3.75;;
61291;SDS011;47165;42.664;23.368;2023-05-07T04:29:26;8.60;;;4.93;;
61291;SDS011;47165;42.664;23.368;2023-05-07T04:31:52;8.27;;;4.75;;
61291;SDS011;47165;42.664;23.368;2023-05-07T04:34:17;8.10;;;3.03;;
61291;SDS011;47165;42.664;23.368;2023-05-07T04:36:43;6.30;;;2.85;;
61291;SDS011;47165;42.664;23.368;2023-05-07T04:39:08;5.97;;;3.17;;
61291;SDS011;47165;42.664;23.368;2023-05-07T04:41:35;6.22;;;2.70;;
61291;SDS011;47165;42.664;23.368;2023-05-07T04:44:01;5.43;;;3.05;;
61291;SDS011;47165;42.664;23.368;2023-05-07T04:46:29;4.20;;;2.65;;
61291;SDS011;47165;42.664;23.368;2023-05-07T04:48:55;4.75;;;3.35;;
61291;SDS011;47165;42.664;23.368;2023-05-07T04:51:20;6.00;;;3.20;;
61291;SDS011;47165;42.664;23.368;2023-05-07T04:53:46;7.30;;;4.00;;
61291;SDS011;47165;42.664;23.368;2023-05-07T04:56:11;6.97;;;4.38;;
61291;SDS011;47165;42.664;23.368;2023-05-07T04:58:37;6.80;;;3.28;;
61291;SDS011;47165;42.664;23.368;2023-05-07T05:01:02;6.30;;;3.40;;
61291;SDS011;47165;42.664;23.368;2023-05-07T05:03:27;9.65;;;3.92;;
61291;SDS011;47165;42.664;23.368;2023-05-07T05:05:53;9.00;;;4.50;;
61291;SDS011;47165;42.664;23.368;2023-05-07T05:08:18;7.32;;;3.60;;
61291;SDS011;47165;42.664;23.368;2023-05-07T05:10:44;8.07;;;4.10;;
61291;SDS011;47165;42.664;23.368;2023-05-07T05:13:09;6.03;;;3.85;;
61291;SDS011;47165;42.664;23.368;2023-05-07T05:15:37;8.07;;;4.70;;
61291;SDS011;47165;42.664;23.368;2023-05-07T05:18:03;8.02;;;4.88;;
61291;SDS011;47165;42.664;23.368;2023-05-07T05:20:29;7.00;;;3.55;;
61291;SDS011;47165;42.664;23.368;2023-05-07T05:22:54;8.32;;;4.55;;
61291;SDS011;47165;42.664;23.368;2023-05-07T05:25:20;6.50;;;4.00;;
61291;SDS011;47165;42.664;23.368;2023-05-07T05:27:45;7.15;;;3.80;;
61291;SDS011;47165;42.664;23.368;2023-05-07T05:30:11;8.07;;;4.05;;
61291;SDS011;47165;42.664;23.368;2023-05-07T05:32:36;7.53;;;3.88;;
61291;SDS011;47165;42.664;23.368;2023-05-07T05:35:02;9.13;;;4.22;;
61291;SDS011;47165;42.664;23.368;2023-05-07T05:37:28;8.32;;;4.25;;
61291;SDS011;47165;42.664;23.368;2023-05-07T05:39:55;5.72;;;3.67;;
61291;SDS011;47165;42.664;23.368;2023-05-07T05:42:20;5.97;;;3.47;;
61291;SDS011;47165;42.664;23.368;2023-05-07T05:44:46;12.27;;;5.78;;
61291;SDS011;47165;42.664;23.368;2023-05-07T05:47:11;6.63;;;3.97;;
61291;SDS011;47165;42.664;23.368;2023-05-07T05:49:37;6.15;;;4.00;;
61291;SDS011;47165;42.664;23.368;2023-05-07T05:52:02;6.80;;;3.55;;
61291;SDS011;47165;42.664;23.368;2023-05-07T05:54:28;6.72;;;4.07;;
61291;SDS011;47165;42.664;23.368;2023-05-07T05:56:53;4.93;;;3.22;;
61291;SDS011;47165;42.664;23.368;2023-05-07T05:59:19;10.48;;;4.85;;
61291;SDS011;47165;42.664;23.368;2023-05-07T06:01:44;6.80;;;3.70;;
61291;SDS011;47165;42.664;23.368;2023-05-07T06:04:10;8.18;;;3.97;;
61291;SDS011;47165;42.664;23.368;2023-05-07T06:06:35;7.90;;;4.25;;
61291;SDS011;47165;42.664;23.368;2023-05-07T06:09:01;8.27;;;3.33;;
61291;SDS011;47165;42.664;23.368;2023-05-07T06:11:26;6.28;;;4.03;;
61291;SDS011;47165;42.664;23.368;2023-05-07T06:13:51;7.80;;;4.35;;
61291;SDS011;47165;42.664;23.368;2023-05-07T06:16:17;7.15;;;4.22;;
61291;SDS011;47165;42.664;23.368;2023-05-07T06:18:42;7.82;;;4.72;;
61291;SDS011;47165;42.664;23.368;2023-05-07T06:21:08;5.78;;;3.80;;
61291;SDS011;47165;42.664;23.368;2023-05-07T06:23:34;6.47;;;4.13;;
61291;SDS011;47165;42.664;23.368;2023-05-07T06:26:00;6.43;;;3.95;;
61291;SDS011;47165;42.664;23.368;2023-05-07T06:28:25;7.47;;;4.00;;
61291;SDS011;47165;42.664;23.368;2023-05-07T06:30:51;13.00;;;6.53;;
61291;SDS011;47165;42.664;23.368;2023-05-07T06:33:16;12.35;;;5.57;;
61291;SDS011;47165;42.664;23.368;2023-05-07T06:35:41;7.45;;;4.25;;
61291;SDS011;47165;42.664;23.368;2023-05-07T06:38:07;8.90;;;4.80;;
61291;SDS011;47165;42.664;23.368;2023-05-07T06:40:32;9.35;;;5.10;;
61291;SDS011;47165;42.664;23.368;2023-05-07T06:42:58;9.32;;;4.85;;
61291;SDS011;47165;42.664;23.368;2023-05-07T06:45:23;8.40;;;4.35;;
61291;SDS011;47165;42.664;23.368;2023-05-07T06:47:50;6.75;;;4.43;;
61291;SDS011;47165;42.664;23.368;2023-05-07T06:50:15;6.63;;;3.45;;
61291;SDS011;47165;42.664;23.368;2023-05-07T06:52:42;10.60;;;5.05;;
61291;SDS011;47165;42.664;23.368;2023-05-07T06:55:07;7.25;;;4.72;;
61291;SDS011;47165;42.664;23.368;2023-05-07T06:57:33;9.77;;;5.32;;
61291;SDS011;47165;42.664;23.368;2023-05-07T06:59:59;6.25;;;4.53;;
61291;SDS011;47165;42.664;23.368;2023-05-07T07:02:24;7.57;;;3.95;;
61291;SDS011;47165;42.664;23.368;2023-05-07T07:04:49;9.63;;;4.55;;
61291;SDS011;47165;42.664;23.368;2023-05-07T07:07:15;6.85;;;3.60;;
61291;SDS011;47165;42.664;23.368;2023-05-07T07:09:40;10.90;;;6.50;;
61291;SDS011;47165;42.664;23.368;2023-05-07T07:12:06;5.40;;;3.80;;
61291;SDS011;47165;42.664;23.368;2023-05-07T07:14:31;5.93;;;3.90;;
61291;SDS011;47165;42.664;23.368;2023-05-07T07:16:57;7.47;;;4.32;;
61291;SDS011;47165;42.664;23.368;2023-05-07T07:19:22;7.82;;;4.50;;
61291;SDS011;47165;42.664;23.368;2023-05-07T07:21:48;11.13;;;5.38;;
61291;SDS011;47165;42.664;23.368;2023-05-07T07:24:13;5.80;;;3.22;;
61291;SDS011;47165;42.664;23.368;2023-05-07T07:26:44;6.25;;;3.65;;
61291;SDS011;47165;42.664;23.368;2023-05-07T07:29:09;6.47;;;3.63;;
61291;SDS011;47165;42.664;23.368;2023-05-07T07:31:35;5.88;;;4.30;;
61291;SDS011;47165;42.664;23.368;2023-05-07T07:34:00;7.13;;;4.38;;
61291;SDS011;47165;42.664;23.368;2023-05-07T07:36:25;11.60;;;6.40;;
61291;SDS011;47165;42.664;23.368;2023-05-07T07:38:51;6.95;;;4.75;;
61291;SDS011;47165;42.664;23.368;2023-05-07T07:41:16;9.10;;;4.78;;
61291;SDS011;47165;42.664;23.368;2023-05-07T07:43:42;9.95;;;5.07;;
61291;SDS011;47165;42.664;23.368;2023-05-07T07:46:07;5.65;;;3.17;;
61291;SDS011;47165;42.664;23.368;2023-05-07T07:48:33;8.82;;;3.75;;
61291;SDS011;47165;42.664;23.368;2023-05-07T07:50:58;7.32;;;4.22;;
61291;SDS011;47165;42.664;23.368;2023-05-07T07:53:23;11.80;;;7.63;;
61291;SDS011;47165;42.664;23.368;2023-05-07T07:55:49;6.45;;;3.88;;
61291;SDS011;47165;42.664;23.368;2023-05-07T07:58:14;10.57;;;6.90;;
61291;SDS011;47165;42.664;23.368;2023-05-07T08:00:40;7.75;;;4.82;;
61291;SDS011;47165;42.664;23.368;2023-05-07T08:03:06;9.15;;;4.10;;
61291;SDS011;47165;42.664;23.368;2023-05-07T08:05:34;7.78;;;4.55;;
61291;SDS011;47165;42.664;23.368;2023-05-07T08:08:00;8.25;;;3.95;;
61291;SDS011;47165;42.664;23.368;2023-05-07T08:10:25;8.50;;;5.53;;
61291;SDS011;47165;42.664;23.368;2023-05-07T08:12:51;10.52;;;6.85;;
61291;SDS011;47165;42.664;23.368;2023-05-07T08:15:16;10.60;;;7.60;;
61291;SDS011;47165;42.664;23.368;2023-05-07T08:17:42;13.50;;;8.10;;
61291;SDS011;47165;42.664;23.368;2023-05-07T08:20:08;11.10;;;5.97;;
61291;SDS011;47165;42.664;23.368;2023-05-07T08:22:34;8.25;;;5.00;;
61291;SDS011;47165;42.664;23.368;2023-05-07T08:25:00;9.05;;;5.88;;
61291;SDS011;47165;42.664;23.368;2023-05-07T08:27:26;7.07;;;4.85;;
61291;SDS011;47165;42.664;23.368;2023-05-07T08:29:52;10.82;;;6.20;;
61291;SDS011;47165;42.664;23.368;2023-05-07T08:32:17;8.55;;;5.10;;
61291;SDS011;47165;42.664;23.368;2023-05-07T08:34:42;8.07;;;4.78;;
61291;SDS011;47165;42.664;23.368;2023-05-07T08:37:08;11.00;;;5.97;;
61291;SDS011;47165;42.664;23.368;2023-05-07T08:39:33;9.35;;;4.60;;
61291;SDS011;47165;42.664;23.368;2023-05-07T08:41:59;6.70;;;4.22;;
61291;SDS011;47165;42.664;23.368;2023-05-07T08:44:27;13.13;;;5.40;;
61291;SDS011;47165;42.664;23.368;2023-05-07T08:46:57;6.47;;;3.83;;
61291;SDS011;47165;42.664;23.368;2023-05-07T08:49:27;9.13;;;4.68;;
61291;SDS011;47165;42.664;23.368;2023-05-07T08:51:53;9.32;;;4.93;;
61291;SDS011;47165;42.664;23.368;2023-05-07T08:54:18;10.43;;;5.25;;
61291;SDS011;47165;42.664;23.368;2023-05-07T08:56:46;5.90;;;3.45;;
61291;SDS011;47165;42.664;23.368;2023-05-07T08:59:11;6.28;;;4.05;;
61291;SDS011;47165;42.664;23.368;2023-05-07T09:01:37;5.20;;;3.40;;
61291;SDS011;47165;42.664;23.368;2023-05-07T09:04:03;8.52;;;5.10;;
61291;SDS011;47165;42.664;23.368;2023-05-07T09:06:30;4.95;;;3.47;;
61291;SDS011;47165;42.664;23.368;2023-05-07T09:08:56;3.75;;;2.80;;
61291;SDS011;47165;42.664;23.368;2023-05-07T09:11:23;7.50;;;4.75;;
61291;SDS011;47165;42.664;23.368;2023-05-07T09:13:54;3.90;;;2.58;;
61291;SDS011;47165;42.664;23.368;2023-05-07T09:16:21;6.18;;;4.28;;
61291;SDS011;47165;42.664;23.368;2023-05-07T09:18:49;10.68;;;4.05;;
61291;SDS011;47165;42.664;23.368;2023-05-07T09:21:17;4.80;;;3.20;;
61291;SDS011;47165;42.664;23.368;2023-05-07T09:23:43;6.63;;;3.85;;
61291;SDS011;47165;42.664;23.368;2023-05-07T09:26:09;6.80;;;4.57;;
61291;SDS011;47165;42.664;23.368;2023-05-07T09:28:40;4.45;;;3.22;;
61291;SDS011;47165;42.664;23.368;2023-05-07T09:31:06;5.90;;;4.35;;
61291;SDS011;47165;42.664;23.368;2023-05-07T09:33:33;7.68;;;4.25;;
61291;SDS011;47165;42.664;23.368;2023-05-07T09:36:01;5.43;;;3.78;;
61291;SDS011;47165;42.664;23.368;2023-05-07T09:38:27;4.60;;;3.55;;
61291;SDS011;47165;42.664;23.368;2023-05-07T09:41:03;5.28;;;3.13;;
61291;SDS011;47165;42.664;23.368;2023-05-07T09:43:32;7.95;;;3.30;;
61291;SDS011;47165;42.664;23.368;2023-05-07T09:46:01;7.13;;;3.72;;
61291;SDS011;47165;42.664;23.368;2023-05-07T09:48:28;4.95;;;3.40;;
61291;SDS011;47165;42.664;23.368;2023-05-07T09:50:55;4.72;;;3.67;;
61291;SDS011;47165;42.664;23.368;2023-05-07T09:53:25;4.53;;;2.70;;
61291;SDS011;47165;42.664;23.368;2023-05-07T09:55:51;5.43;;;3.55;;
61291;SDS011;47165;42.664;23.368;2023-05-07T09:58:18;4.28;;;3.00;;
61291;SDS011;47165;42.664;23.368;2023-05-07T10:00:43;4.43;;;2.85;;
61291;SDS011;47165;42.664;23.368;2023-05-07T10:03:10;5.22;;;2.70;;
61291;SDS011;47165;42.664;23.368;2023-05-07T10:05:37;5.22;;;3.20;;
61291;SDS011;47165;42.664;23.368;2023-05-07T10:08:04;7.10;;;3.47;;
61291;SDS011;47165;42.664;23.368;2023-05-07T10:10:30;4.45;;;3.03;;
61291;SDS011;47165;42.664;23.368;2023-05-07T10:12:57;3.40;;;2.53;;
61291;SDS011;47165;42.664;23.368;2023-05-07T10:15:23;3.72;;;2.83;;
61291;SDS011;47165;42.664;23.368;2023-05-07T10:17:50;8.05;;;3.65;;
61291;SDS011;47165;42.664;23.368;2023-05-07T10:20:18;5.05;;;3.13;;
61291;SDS011;47165;42.664;23.368;2023-05-07T10:22:44;3.33;;;2.85;;
61291;SDS011;47165;42.664;23.368;2023-05-07T10:25:18;3.17;;;2.67;;
61291;SDS011;47165;42.664;23.368;2023-05-07T10:27:48;2.72;;;2.40;;
61291;SDS011;47165;42.664;23.368;2023-05-07T10:30:26;3.80;;;2.25;;
61291;SDS011;47165;42.664;23.368;2023-05-07T10:32:56;5.43;;;2.97;;
61291;SDS011;47165;42.664;23.368;2023-05-07T10:35:30;4.50;;;3.00;;
61291;SDS011;47165;42.664;23.368;2023-05-07T10:38:01;6.00;;;3.33;;
61291;SDS011;47165;42.664;23.368;2023-05-07T10:40:27;4.28;;;3.08;;
61291;SDS011;47165;42.664;23.368;2023-05-07T10:42:53;6.50;;;3.60;;
61291;SDS011;47165;42.664;23.368;2023-05-07T10:45:23;5.60;;;3.15;;
61291;SDS011;47165;42.664;23.368;2023-05-07T10:50:33;4.18;;;2.53;;
61291;SDS011;47165;42.664;23.368;2023-05-07T10:55:43;5.13;;;3.42;;
61291;SDS011;47165;42.664;23.368;2023-05-07T11:00:46;5.82;;;3.15;;
61291;SDS011;47165;42.664;23.368;2023-05-07T11:03:11;3.63;;;2.72;;
61291;SDS011;47165;42.664;23.368;2023-05-07T11:05:37;6.40;;;3.00;;
61291;SDS011;47165;42.664;23.368;2023-05-07T11:08:04;5.78;;;2.83;;
61291;SDS011;47165;42.664;23.368;2023-05-07T11:10:49;4.28;;;2.72;;
61291;SDS011;47165;42.664;23.368;2023-05-07T11:16:24;4.05;;;2.63;;
61291;SDS011;47165;42.664;23.368;2023-05-07T11:18:51;5.05;;;2.42;;
61291;SDS011;47165;42.664;23.368;2023-05-07T11:21:31;4.50;;;3.05;;
61291;SDS011;47165;42.664;23.368;2023-05-07T11:24:00;3.90;;;3.25;;
61291;SDS011;47165;42.664;23.368;2023-05-07T11:26:27;8.05;;;3.63;;
61291;SDS011;47165;42.664;23.368;2023-05-07T11:28:54;6.57;;;4.43;;
61291;SDS011;47165;42.664;23.368;2023-05-07T11:31:24;3.75;;;1.98;;
61291;SDS011;47165;42.664;23.368;2023-05-07T11:33:51;7.97;;;3.50;;
61291;SDS011;47165;42.664;23.368;2023-05-07T11:36:18;3.95;;;3.03;;
61291;SDS011;47165;42.664;23.368;2023-05-07T11:38:44;6.85;;;3.28;;
61291;SDS011;47165;42.664;23.368;2023-05-07T11:41:10;3.92;;;2.78;;
61291;SDS011;47165;42.664;23.368;2023-05-07T11:43:35;3.67;;;2.65;;
61291;SDS011;47165;42.664;23.368;2023-05-07T11:46:10;3.30;;;2.58;;
61291;SDS011;47165;42.664;23.368;2023-05-07T11:48:37;4.93;;;2.72;;
61291;SDS011;47165;42.664;23.368;2023-05-07T11:51:04;3.25;;;2.67;;
61291;SDS011;47165;42.664;23.368;2023-05-07T11:53:37;6.10;;;3.10;;
61291;SDS011;47165;42.664;23.368;2023-05-07T11:56:11;3.10;;;2.72;;
61291;SDS011;47165;42.664;23.368;2023-05-07T11:58:39;3.50;;;2.92;;
61291;SDS011;47165;42.664;23.368;2023-05-07T12:01:09;3.78;;;3.20;;
61291;SDS011;47165;42.664;23.368;2023-05-07T12:03:36;3.38;;;2.72;;
61291;SDS011;47165;42.664;23.368;2023-05-07T12:06:02;4.70;;;2.67;;
61291;SDS011;47165;42.664;23.368;2023-05-07T12:08:30;4.00;;;3.17;;
61291;SDS011;47165;42.664;23.368;2023-05-07T12:10:56;3.42;;;2.88;;
61291;SDS011;47165;42.664;23.368;2023-05-07T12:13:22;3.00;;;2.50;;
61291;SDS011;47165;42.664;23.368;2023-05-07T12:15:55;3.90;;;2.53;;
61291;SDS011;47165;42.664;23.368;2023-05-07T12:18:21;3.15;;;2.85;;
61291;SDS011;47165;42.664;23.368;2023-05-07T12:20:48;3.33;;;2.38;;
61291;SDS011;47165;42.664;23.368;2023-05-07T12:23:14;4.55;;;3.50;;
61291;SDS011;47165;42.664;23.368;2023-05-07T12:25:40;4.53;;;2.83;;
61291;SDS011;47165;42.664;23.368;2023-05-07T12:28:14;4.75;;;2.63;;
61291;SDS011;47165;42.664;23.368;2023-05-07T12:30:45;5.13;;;2.88;;
61291;SDS011;47165;42.664;23.368;2023-05-07T12:33:12;6.38;;;2.80;;
61291;SDS011;47165;42.664;23.368;2023-05-07T12:35:42;3.20;;;2.75;;
61291;SDS011;47165;42.664;23.368;2023-05-07T12:38:09;4.72;;;2.75;;
61291;SDS011;47165;42.664;23.368;2023-05-07T12:40:42;3.08;;;2.65;;
61291;SDS011;47165;42.664;23.368;2023-05-07T12:43:20;5.13;;;2.22;;
61291;SDS011;47165;42.664;23.368;2023-05-07T12:45:47;3.22;;;2.63;;
61291;SDS011;47165;42.664;23.368;2023-05-07T12:48:14;4.45;;;2.50;;
61291;SDS011;47165;42.664;23.368;2023-05-07T12:50:40;3.83;;;2.40;;
61291;SDS011;47165;42.664;23.368;2023-05-07T12:53:06;4.93;;;2.38;;
61291;SDS011;47165;42.664;23.368;2023-05-07T12:58:27;2.42;;;2.10;;
61291;SDS011;47165;42.664;23.368;2023-05-07T13:00:55;1.92;;;1.63;;
61291;SDS011;47165;42.664;23.368;2023-05-07T13:03:30;3.60;;;1.98;;
61291;SDS011;47165;42.664;23.368;2023-05-07T13:06:16;3.38;;;2.28;;
61291;SDS011;47165;42.664;23.368;2023-05-07T13:08:41;5.32;;;2.40;;
61291;SDS011;47165;42.664;23.368;2023-05-07T13:11:10;2.83;;;2.22;;
61291;SDS011;47165;42.664;23.368;2023-05-07T13:13:37;2.28;;;1.77;;
61291;SDS011;47165;42.664;23.368;2023-05-07T13:16:04;2.25;;;1.67;;
61291;SDS011;47165;42.664;23.368;2023-05-07T13:18:30;2.05;;;1.52;;
61291;SDS011;47165;42.664;23.368;2023-05-07T13:20:57;3.83;;;1.80;;
61291;SDS011;47165;42.664;23.368;2023-05-07T13:23:23;4.43;;;1.88;;
61291;SDS011;47165;42.664;23.368;2023-05-07T13:25:48;2.30;;;1.88;;
61291;SDS011;47165;42.664;23.368;2023-05-07T13:28:15;3.08;;;2.03;;
61291;SDS011;47165;42.664;23.368;2023-05-07T13:30:41;2.53;;;1.85;;
61291;SDS011;47165;42.664;23.368;2023-05-07T13:33:06;1.60;;;1.45;;
61291;SDS011;47165;42.664;23.368;2023-05-07T13:35:32;3.67;;;2.05;;
61291;SDS011;47165;42.664;23.368;2023-05-07T13:37:58;3.58;;;2.10;;
61291;SDS011;47165;42.664;23.368;2023-05-07T13:40:23;1.80;;;1.50;;
61291;SDS011;47165;42.664;23.368;2023-05-07T13:42:49;3.28;;;1.70;;
61291;SDS011;47165;42.664;23.368;2023-05-07T13:45:15;2.05;;;1.65;;
61291;SDS011;47165;42.664;23.368;2023-05-07T13:47:42;3.10;;;2.05;;
61291;SDS011;47165;42.664;23.368;2023-05-07T13:50:08;3.20;;;2.22;;
61291;SDS011;47165;42.664;23.368;2023-05-07T13:52:34;2.05;;;1.85;;
61291;SDS011;47165;42.664;23.368;2023-05-07T13:55:00;5.88;;;2.08;;
61291;SDS011;47165;42.664;23.368;2023-05-07T13:57:25;1.73;;;1.60;;
61291;SDS011;47165;42.664;23.368;2023-05-07T13:59:51;2.90;;;1.90;;
61291;SDS011;47165;42.664;23.368;2023-05-07T14:02:16;2.88;;;1.88;;
61291;SDS011;47165;42.664;23.368;2023-05-07T14:04:41;3.10;;;1.95;;
61291;SDS011;47165;42.664;23.368;2023-05-07T14:07:07;3.60;;;1.58;;
61291;SDS011;47165;42.664;23.368;2023-05-07T14:09:32;3.97;;;2.03;;
61291;SDS011;47165;42.664;23.368;2023-05-07T14:11:58;4.07;;;2.33;;
61291;SDS011;47165;42.664;23.368;2023-05-07T14:14:24;3.08;;;1.73;;
61291;SDS011;47165;42.664;23.368;2023-05-07T14:16:49;6.00;;;2.08;;
61291;SDS011;47165;42.664;23.368;2023-05-07T14:19:15;4.40;;;2.58;;
61291;SDS011;47165;42.664;23.368;2023-05-07T14:21:40;2.15;;;1.75;;
61291;SDS011;47165;42.664;23.368;2023-05-07T14:24:06;3.60;;;2.10;;
61291;SDS011;47165;42.664;23.368;2023-05-07T14:26:33;2.40;;;1.90;;
61291;SDS011;47165;42.664;23.368;2023-05-07T14:28:59;1.92;;;1.63;;
61291;SDS011;47165;42.664;23.368;2023-05-07T14:31:24;3.70;;;1.83;;
61291;SDS011;47165;42.664;23.368;2023-05-07T14:33:50;2.72;;;1.73;;
61291;SDS011;47165;42.664;23.368;2023-05-07T14:36:16;2.45;;;1.85;;
61291;SDS011;47165;42.664;23.368;2023-05-07T14:38:46;3.45;;;2.05;;
61291;SDS011;47165;42.664;23.368;2023-05-07T14:41:11;2.90;;;2.15;;
61291;SDS011;47165;42.664;23.368;2023-05-07T14:43:37;5.18;;;2.00;;